Time;durP1;ratioP1;P1;durP2;ratioP2;P2;SDS_P1;SDS_P2;PMS_P1;PMS_P2;Temp;Humidity;BMP_temperature;BMP_pressure;BME280_temperature;BME280_humidity;BME280_pressure;Samples;Min_cycle;Max_cycle;Signal;HPM_P1;HPM_P2
2022/08/30 00:03:00;;;;;;;10.88;9.05;;;15.90;99.90;;;;;;5090753;28;20412;-71
2022/08/30 00:05:30;;;;;;;9.65;8.48;;;16.00;99.90;;;;;;5092452;28;20036;-71
2022/08/30 00:07:56;;;;;;;10.02;8.73;;;16.00;99.90;;;;;;5110516;28;20117;-71
2022/08/30 00:10:22;;;;;;;11.43;9.82;;;16.00;99.90;;;;;;5092213;28;20043;-71
2022/08/30 00:12:48;;;;;;;15.52;9.23;;;16.00;99.90;;;;;;5090828;28;20086;-71
2022/08/30 00:15:17;;;;;;;11.45;8.07;;;16.00;99.90;;;;;;5092531;28;20079;-71
2022/08/30 00:17:43;;;;;;;10.73;8.15;;;16.00;99.90;;;;;;5092818;28;20105;-72
2022/08/30 00:20:13;;;;;;;9.93;8.93;;;16.00;99.90;;;;;;5120928;27;20489;-71
2022/08/30 00:22:40;;;;;;;13.48;9.00;;;16.00;99.90;;;;;;5097462;27;20431;-71
2022/08/30 00:25:07;;;;;;;11.23;8.02;;;16.00;99.90;;;;;;5099165;28;20047;-71
2022/08/30 00:27:33;;;;;;;23.35;8.38;;;16.00;99.90;;;;;;5092416;28;20051;-71
2022/08/30 00:29:58;;;;;;;8.50;7.35;;;16.00;99.90;;;;;;5092495;28;20150;-72
2022/08/30 00:32:24;;;;;;;11.77;7.45;;;16.00;99.90;;;;;;5106317;27;20043;-71
2022/08/30 00:34:51;;;;;;;7.57;6.38;;;16.10;99.90;;;;;;5091501;28;20459;-71
2022/08/30 00:37:17;;;;;;;8.68;7.85;;;16.10;99.90;;;;;;5110275;28;20051;-71
2022/08/30 00:39:44;;;;;;;17.23;9.30;;;16.00;99.90;;;;;;5109617;28;20040;-71
2022/08/30 00:42:09;;;;;;;13.30;8.98;;;16.10;99.90;;;;;;5091328;28;20455;-71
2022/08/30 00:44:35;;;;;;;13.68;9.65;;;16.00;99.90;;;;;;5091730;28;20168;-71
2022/08/30 00:47:01;;;;;;;13.90;9.98;;;16.00;99.90;;;;;;5089143;28;20070;-71
2022/08/30 00:49:28;;;;;;;11.02;9.13;;;16.00;99.90;;;;;;5096626;28;20116;-71
2022/08/30 00:51:55;;;;;;;9.65;7.97;;;16.00;99.90;;;;;;5092115;28;20131;-71
2022/08/30 00:54:22;;;;;;;10.45;9.43;;;16.00;99.90;;;;;;5109813;28;20040;-71
2022/08/30 00:56:48;;;;;;;17.83;9.00;;;16.00;99.90;;;;;;5090670;28;20047;-71
2022/08/30 00:59:14;;;;;;;9.88;8.65;;;15.90;99.90;;;;;;5091178;28;20050;-71
2022/08/30 01:01:41;;;;;;;11.23;8.77;;;15.90;99.90;;;;;;5089822;27;20043;-71
2022/08/30 01:04:08;;;;;;;11.77;9.05;;;15.90;99.90;;;;;;5109991;28;20050;-71
2022/08/30 01:06:34;;;;;;;10.93;9.85;;;15.90;99.90;;;;;;5091022;28;20103;-71
2022/08/30 01:09:03;;;;;;;18.63;9.48;;;15.90;99.90;;;;;;5092026;28;20039;-71
2022/08/30 01:11:30;;;;;;;;;;;15.80;99.90;;;;;;5091635;28;20166;-71
2022/08/30 01:13:57;;;;;;;14.15;9.70;;;15.80;99.90;;;;;;5091434;28;19933;-71
2022/08/30 01:16:24;;;;;;;9.95;8.80;;;15.80;99.90;;;;;;5109537;28;20048;-71
2022/08/30 01:18:53;;;;;;;15.97;9.20;;;15.70;99.90;;;;;;5073952;28;20048;-71
2022/08/30 01:21:46;;;;;;;18.45;10.45;;;15.70;99.90;;;;;;5090662;28;20058;-71
2022/08/30 01:24:12;;;;;;;10.63;9.32;;;15.60;99.90;;;;;;5107885;28;20122;-71
2022/08/30 01:26:38;;;;;;;10.35;9.23;;;15.60;99.90;;;;;;5119992;27;20043;-71
2022/08/30 01:29:08;;;;;;;13.07;10.57;;;15.60;99.90;;;;;;5124761;27;20032;-71
2022/08/30 01:31:35;;;;;;;12.57;9.35;;;15.50;99.90;;;;;;5108347;28;20044;-71
2022/08/30 01:34:04;;;;;;;14.18;11.30;;;15.60;99.90;;;;;;5108696;28;20074;-71
2022/08/30 01:36:30;;;;;;;10.85;9.75;;;15.50;99.90;;;;;;5090293;28;20051;-71
2022/08/30 01:38:56;;;;;;;11.43;10.32;;;15.50;99.90;;;;;;5081071;28;20051;-71
2022/08/30 01:41:24;;;;;;;10.65;9.50;;;15.50;99.90;;;;;;5089791;28;20048;-71
2022/08/30 01:43:52;;;;;;;13.68;10.80;;;15.50;99.90;;;;;;5090927;28;20131;-71
2022/08/30 01:46:22;;;;;;;13.93;11.13;;;15.50;99.90;;;;;;5090902;28;20126;-71
2022/08/30 01:48:48;;;;;;;13.45;9.60;;;15.50;99.90;;;;;;5090424;28;20047;-71
2022/08/30 01:51:14;;;;;;;11.75;9.35;;;15.40;99.90;;;;;;5089794;28;20381;-71
2022/08/30 01:53:42;;;;;;;15.70;9.48;;;15.50;99.90;;;;;;5090903;28;20127;-71
2022/08/30 01:56:09;;;;;;;10.85;9.73;;;15.40;99.90;;;;;;5107750;28;20047;-71
2022/08/30 01:58:37;;;;;;;11.68;10.57;;;15.40;99.90;;;;;;5090449;28;20054;-71
2022/08/30 02:01:05;;;;;;;18.05;12.00;;;15.40;99.90;;;;;;5106621;28;20047;-71
2022/08/30 02:03:34;;;;;;;16.27;9.73;;;15.40;99.90;;;;;;5107418;28;20044;-71
2022/08/30 02:06:06;;;;;;;;;;;15.40;99.90;;;;;;5109450;28;20578;-71
2022/08/30 02:08:33;;;;;;;17.17;11.43;;;15.30;99.90;;;;;;5101223;28;19972;-71
2022/08/30 02:10:59;;;;;;;12.55;10.25;;;15.30;99.90;;;;;;5106621;28;20062;-71
2022/08/30 02:13:29;;;;;;;14.98;10.25;;;15.30;99.90;;;;;;5090098;28;20048;-71
2022/08/30 02:15:55;;;;;;;10.23;9.23;;;15.30;99.90;;;;;;5090300;28;20058;-70
2022/08/30 02:18:23;;;;;;;15.75;10.23;;;15.30;99.90;;;;;;5087307;28;20390;-71
2022/08/30 02:20:49;;;;;;;13.00;9.55;;;15.30;99.90;;;;;;5107027;28;20401;-71
2022/08/30 02:23:14;;;;;;;16.83;10.18;;;15.20;99.90;;;;;;5112356;27;20058;-71
2022/08/30 02:25:40;;;;;;;12.95;9.77;;;15.20;99.90;;;;;;5088886;28;20594;-71
2022/08/30 02:28:06;;;;;;;11.20;10.00;;;15.20;99.90;;;;;;5089611;28;20050;-71
2022/08/30 02:30:32;;;;;;;11.18;9.18;;;15.20;99.90;;;;;;5089398;28;20046;-71
2022/08/30 02:32:58;;;;;;;12.55;8.68;;;15.20;99.90;;;;;;5108045;28;20397;-71
2022/08/30 02:35:23;;;;;;;12.30;9.75;;;15.20;99.90;;;;;;5090109;28;20060;-71
2022/08/30 02:37:49;;;;;;;18.85;7.78;;;15.30;99.90;;;;;;5107802;28;20595;-71
2022/08/30 02:40:14;;;;;;;9.57;8.43;;;15.20;99.90;;;;;;5089781;28;20058;-71
2022/08/30 02:42:40;;;;;;;9.32;8.43;;;15.20;99.90;;;;;;5089642;28;20046;-71
2022/08/30 02:45:07;;;;;;;10.90;8.32;;;15.20;99.90;;;;;;5089701;28;20127;-71
2022/08/30 02:47:33;;;;;;;10.05;9.05;;;15.20;99.90;;;;;;5089858;28;20451;-71
2022/08/30 02:50:00;;;;;;;9.70;8.80;;;15.20;99.90;;;;;;5090438;28;20434;-71
2022/08/30 02:52:26;;;;;;;10.38;9.38;;;15.20;99.90;;;;;;5089386;28;20111;-71
2022/08/30 02:54:53;;;;;;;10.45;9.13;;;15.10;99.90;;;;;;5080955;28;20193;-71
2022/08/30 02:57:19;;;;;;;8.85;8.05;;;15.10;99.90;;;;;;5089534;28;20052;-71
2022/08/30 02:59:46;;;;;;;9.52;8.18;;;15.10;99.90;;;;;;5088600;28;20063;-71
2022/08/30 03:02:12;;;;;;;10.38;7.53;;;15.00;99.90;;;;;;5096053;28;20054;-71
2022/08/30 03:04:38;;;;;;;9.23;8.25;;;15.00;99.90;;;;;;5107446;28;20400;-71
2022/08/30 03:07:07;;;;;;;9.63;8.65;;;15.00;99.90;;;;;;5089701;28;20047;-71
2022/08/30 03:09:33;;;;;;;10.13;8.65;;;15.00;99.90;;;;;;5089268;28;20040;-71
2022/08/30 03:11:59;;;;;;;13.95;10.68;;;14.90;99.90;;;;;;5108098;28;20054;-71
2022/08/30 03:14:25;;;;;;;13.35;10.05;;;14.80;99.90;;;;;;5108046;28;20071;-71
2022/08/30 03:16:50;;;;;;;15.30;11.57;;;14.80;99.90;;;;;;5107508;28;20148;-71
2022/08/30 03:19:16;;;;;;;14.10;8.80;;;14.70;99.90;;;;;;5107222;28;20040;-71
2022/08/30 03:21:43;;;;;;;12.57;10.15;;;14.70;99.90;;;;;;5089530;28;20051;-71
2022/08/30 03:24:09;;;;;;;10.82;9.70;;;14.70;99.90;;;;;;5102320;28;20055;-71
2022/08/30 03:26:35;;;;;;;11.45;9.50;;;14.60;99.90;;;;;;5089583;28;20463;-71
2022/08/30 03:29:01;;;;;;;12.18;8.65;;;14.60;99.90;;;;;;5089050;28;20047;-71
2022/08/30 03:31:27;;;;;;;14.00;9.82;;;14.60;99.90;;;;;;5072353;28;20115;-71
2022/08/30 03:33:52;;;;;;;14.65;10.95;;;14.60;99.90;;;;;;5107511;28;20043;-71
2022/08/30 03:36:19;;;;;;;14.27;11.32;;;14.50;99.90;;;;;;5089711;28;20051;-71
2022/08/30 03:38:44;;;;;;;11.18;9.77;;;14.60;99.90;;;;;;5089842;28;20229;-71
2022/08/30 03:41:10;;;;;;;11.43;10.23;;;14.50;99.90;;;;;;5089522;28;20123;-71
2022/08/30 03:43:36;;;;;;;13.63;10.27;;;14.50;99.90;;;;;;5088608;28;20051;-71
2022/08/30 03:46:02;;;;;;;14.07;11.30;;;14.50;99.90;;;;;;5089028;28;20118;-71
2022/08/30 03:48:29;;;;;;;11.43;10.10;;;14.40;99.90;;;;;;5091807;28;20043;-71
2022/08/30 03:50:55;;;;;;;17.15;11.02;;;14.40;99.90;;;;;;5091855;28;20887;-71
2022/08/30 03:53:21;;;;;;;11.15;9.88;;;14.40;99.90;;;;;;5110999;28;20180;-71
2022/08/30 03:55:47;;;;;;;13.38;10.85;;;14.30;99.90;;;;;;5075318;28;20039;-71
2022/08/30 03:58:12;;;;;;;12.93;9.77;;;14.30;99.90;;;;;;5111332;28;20441;-71
2022/08/30 04:00:38;;;;;;;12.73;10.63;;;14.30;99.90;;;;;;5089258;28;20876;-71
2022/08/30 04:03:04;;;;;;;17.02;11.35;;;14.20;99.90;;;;;;5110418;27;20047;-71
2022/08/30 04:05:30;;;;;;;12.98;11.32;;;14.10;99.90;;;;;;5084967;28;20130;-71
2022/08/30 04:07:57;;;;;;;12.90;10.88;;;14.10;99.90;;;;;;5110805;28;20130;-71
2022/08/30 04:10:23;;;;;;;13.73;11.65;;;14.10;99.90;;;;;;5092135;27;20135;-71
2022/08/30 04:12:49;;;;;;;16.08;12.68;;;14.00;99.90;;;;;;5092817;28;20059;-71
2022/08/30 04:15:16;;;;;;;16.48;12.15;;;14.00;99.90;;;;;;5092460;28;20044;-71
2022/08/30 04:17:42;;;;;;;13.40;12.00;;;13.90;99.90;;;;;;5101014;27;20074;-71
2022/08/30 04:20:08;;;;;;;12.02;10.90;;;13.90;99.90;;;;;;5094087;28;20067;-71
2022/08/30 04:22:35;;;;;;;16.80;11.80;;;13.90;99.90;;;;;;5089669;27;20041;-71
2022/08/30 04:25:02;;;;;;;12.40;10.95;;;13.90;99.90;;;;;;5099032;28;20078;-71
2022/08/30 04:27:28;;;;;;;15.32;12.90;;;13.80;99.90;;;;;;5091953;28;20043;-71
2022/08/30 04:29:55;;;;;;;13.40;12.10;;;13.80;99.90;;;;;;5093262;28;20442;-71
2022/08/30 04:32:21;;;;;;;18.65;13.75;;;13.70;99.90;;;;;;5090071;28;20051;-71
2022/08/30 04:34:46;;;;;;;16.27;13.95;;;13.70;99.90;;;;;;5091421;27;20055;-71
2022/08/30 04:37:13;;;;;;;15.90;14.20;;;13.60;99.90;;;;;;5088745;28;20050;-71
2022/08/30 04:39:39;;;;;;;14.35;12.85;;;13.60;99.90;;;;;;5090100;28;20054;-71
2022/08/30 04:42:05;;;;;;;15.02;12.90;;;13.50;99.90;;;;;;5108090;28;20062;-71
2022/08/30 04:44:31;;;;;;;14.18;12.55;;;13.50;99.90;;;;;;5104657;28;20043;-71
2022/08/30 04:46:57;;;;;;;17.65;14.43;;;13.50;99.90;;;;;;5088839;28;20050;-71
2022/08/30 04:49:23;;;;;;;13.13;11.70;;;13.50;99.90;;;;;;5108443;28;20048;-71
2022/08/30 04:51:49;;;;;;;12.93;11.63;;;13.50;99.90;;;;;;5109519;28;20051;-71
2022/08/30 04:54:14;;;;;;;14.93;13.43;;;13.60;99.90;;;;;;5109373;28;20046;-72
2022/08/30 04:56:40;;;;;;;17.27;12.90;;;13.70;99.90;;;;;;5091863;28;20047;-72
2022/08/30 04:59:06;;;;;;;13.70;11.75;;;13.70;99.90;;;;;;5108546;28;20395;-73
2022/08/30 05:01:32;;;;;;;24.15;13.10;;;13.70;99.90;;;;;;5088928;28;20123;-72
2022/08/30 05:03:58;;;;;;;18.33;13.75;;;13.60;99.90;;;;;;5091985;28;20079;-72
2022/08/30 05:06:26;;;;;;;16.38;12.88;;;13.50;99.90;;;;;;5091702;28;20066;-72
2022/08/30 05:08:53;;;;;;;16.48;14.88;;;13.50;99.90;;;;;;5083420;28;20048;-72
2022/08/30 05:11:19;;;;;;;17.40;14.27;;;13.40;99.90;;;;;;5089244;28;20067;-72
2022/08/30 05:13:45;;;;;;;16.27;14.57;;;13.30;99.90;;;;;;5091540;28;20144;-72
2022/08/30 05:16:16;;;;;;;13.68;12.27;;;13.20;99.90;;;;;;5090936;28;20469;-72
2022/08/30 05:18:50;;;;;;;14.45;13.05;;;13.20;99.90;;;;;;5091721;28;20040;-72
2022/08/30 05:21:22;;;;;;;15.25;13.73;;;13.20;99.90;;;;;;5111874;27;20060;-72
2022/08/30 05:23:49;;;;;;;14.10;11.75;;;13.20;99.90;;;;;;5104998;27;20051;-73
2022/08/30 05:26:23;;;;;;;17.20;14.68;;;13.40;99.90;;;;;;5090966;28;20492;-73
2022/08/30 05:28:49;;;;;;;17.08;14.20;;;13.60;99.90;;;;;;5090522;28;20032;-73
2022/08/30 05:31:24;;;;;;;17.23;14.30;;;14.00;99.90;;;;;;5092508;27;20053;-73
2022/08/30 05:33:51;;;;;;;16.75;14.38;;;14.30;99.90;;;;;;5094362;28;20051;-77
2022/08/30 05:36:18;;;;;;;14.18;12.68;;;14.50;99.90;;;;;;5088164;28;20047;-77
2022/08/30 05:38:44;;;;;;;17.13;12.77;;;14.70;99.90;;;;;;5091111;28;20058;-75
2022/08/30 05:41:11;;;;;;;16.38;13.52;;;14.80;99.90;;;;;;5088985;28;20047;-78
2022/08/30 05:43:37;;;;;;;13.85;12.32;;;14.70;99.90;;;;;;5087332;28;20059;-78
2022/08/30 05:46:06;;;;;;;15.52;13.48;;;14.50;99.90;;;;;;5089678;28;20849;-76
2022/08/30 05:48:33;;;;;;;15.27;13.07;;;14.40;99.90;;;;;;5091841;27;20055;-76
2022/08/30 05:51:10;;;;;;;15.18;13.68;;;14.30;99.90;;;;;;5109604;27;20051;-78
2022/08/30 05:53:38;;;;;;;17.83;13.85;;;14.20;99.90;;;;;;5098433;27;20042;-78
2022/08/30 05:56:07;;;;;;;14.57;13.07;;;14.10;99.90;;;;;;5111899;27;20078;-77
2022/08/30 05:58:34;;;;;;;16.73;13.23;;;14.10;99.90;;;;;;5109181;28;20051;-77
2022/08/30 06:01:00;;;;;;;22.27;13.83;;;14.10;99.90;;;;;;5108128;28;20063;-77
2022/08/30 06:03:27;;;;;;;14.90;13.40;;;14.10;99.90;;;;;;5105129;28;20051;-75
2022/08/30 06:05:53;;;;;;;15.50;14.00;;;14.10;99.90;;;;;;5086883;28;20088;-75
2022/08/30 06:08:30;;;;;;;19.80;15.30;;;14.10;99.90;;;;;;5087639;28;20504;-75
2022/08/30 06:10:56;;;;;;;17.35;13.98;;;14.10;99.90;;;;;;5101918;28;20051;-75
2022/08/30 06:13:22;;;;;;;22.13;13.70;;;14.10;99.90;;;;;;5107464;28;20044;-75
2022/08/30 06:15:48;;;;;;;14.77;12.75;;;14.20;99.90;;;;;;5089435;28;20047;-75
2022/08/30 06:18:13;;;;;;;13.48;11.93;;;14.30;99.90;;;;;;5107901;28;20093;-74
2022/08/30 06:20:41;;;;;;;15.10;12.30;;;14.40;99.90;;;;;;5107695;28;20047;-74
2022/08/30 06:23:07;;;;;;;14.38;12.88;;;14.50;99.90;;;;;;5101292;27;20046;-74
2022/08/30 06:25:36;;;;;;;14.35;11.27;;;14.50;99.90;;;;;;5103174;28;20043;-74
2022/08/30 06:28:01;;;;;;;12.13;10.60;;;14.60;99.90;;;;;;5108540;28;20135;-74
2022/08/30 06:30:27;;;;;;;11.77;9.88;;;14.70;99.90;;;;;;5107802;28;20558;-74
2022/08/30 06:32:53;;;;;;;11.32;10.23;;;14.80;99.90;;;;;;5107229;28;20040;-74
2022/08/30 06:35:18;;;;;;;11.98;9.88;;;14.90;99.90;;;;;;5107934;28;20138;-74
2022/08/30 06:37:46;;;;;;;14.43;9.90;;;15.00;99.90;;;;;;5108062;28;20040;-74
2022/08/30 06:40:13;;;;;;;9.45;8.48;;;15.10;99.90;;;;;;5106213;28;20090;-74
2022/08/30 06:42:38;;;;;;;12.18;9.40;;;15.10;99.90;;;;;;5104639;28;20043;-75
2022/08/30 06:45:05;;;;;;;12.50;9.55;;;15.20;99.90;;;;;;5088030;28;20048;-74
2022/08/30 06:47:30;;;;;;;11.05;8.23;;;15.30;99.90;;;;;;5106674;28;20143;-75
2022/08/30 06:49:57;;;;;;;9.48;8.48;;;15.40;99.90;;;;;;5087764;28;20131;-74
2022/08/30 06:52:23;;;;;;;9.95;8.73;;;15.50;99.90;;;;;;5085830;28;20039;-74
2022/08/30 06:54:49;;;;;;;15.77;9.75;;;15.70;99.90;;;;;;5102724;28;20113;-74
2022/08/30 06:57:15;;;;;;;17.25;9.05;;;16.00;99.90;;;;;;5081118;28;20128;-75
2022/08/30 06:59:40;;;;;;;8.73;7.90;;;16.20;99.90;;;;;;5104226;28;20478;-74
2022/08/30 07:02:07;;;;;;;9.82;7.78;;;16.50;99.90;;;;;;5107275;28;20044;-74
2022/08/30 07:04:33;;;;;;;12.63;8.43;;;16.70;99.90;;;;;;5105963;28;20964;-74
2022/08/30 07:06:59;;;;;;;10.85;6.32;;;17.00;99.90;;;;;;5085001;28;20090;-74
2022/08/30 07:09:24;;;;;;;13.55;7.28;;;17.20;99.90;;;;;;5096836;28;20071;-74
2022/08/30 07:11:51;;;;;;;6.57;5.78;;;17.40;99.90;;;;;;5085472;28;20101;-75
2022/08/30 07:14:17;;;;;;;6.40;5.78;;;17.60;99.90;;;;;;5088266;28;20501;-74
2022/08/30 07:16:43;;;;;;;5.97;5.45;;;17.70;99.90;;;;;;5105540;28;20054;-71
2022/08/30 07:19:09;;;;;;;4.93;4.45;;;17.90;99.90;;;;;;5087360;28;20039;-74
2022/08/30 07:21:42;;;;;;;8.52;4.68;;;18.10;99.90;;;;;;5104930;28;20063;-74
2022/08/30 07:24:09;;;;;;;5.00;4.47;;;18.30;99.90;;;;;;5108210;27;20032;-74
2022/08/30 07:26:40;;;;;;;11.60;5.15;;;18.50;99.90;;;;;;5111294;28;20046;-75
2022/08/30 07:29:07;;;;;;;6.15;4.57;;;18.60;99.90;;;;;;5090897;28;20050;-75
2022/08/30 07:31:34;;;;;;;5.50;3.85;;;18.70;99.90;;;;;;5103279;28;20054;-75
2022/08/30 07:34:02;;;;;;;6.45;3.67;;;18.70;99.90;;;;;;5093095;28;20051;-74
2022/08/30 07:36:28;;;;;;;5.90;3.92;;;18.70;99.90;;;;;;5111443;28;20046;-74
2022/08/30 07:38:54;;;;;;;3.22;2.83;;;18.70;99.90;;;;;;5092595;28;20036;-73
2022/08/30 07:41:24;;;;;;;5.18;3.40;;;18.90;99.90;;;;;;5111010;28;20035;-74
2022/08/30 07:43:50;;;;;;;5.70;3.40;;;19.10;99.90;;;;;;5109948;28;20073;-73
2022/08/30 07:46:16;;;;;;;5.68;2.83;;;19.30;99.90;;;;;;5110295;28;20047;-74
2022/08/30 07:48:42;;;;;;;7.22;3.60;;;19.60;99.90;;;;;;5101035;28;20146;-72
2022/08/30 07:51:10;;;;;;;4.88;3.38;;;19.70;99.90;;;;;;5110355;28;20122;-71
2022/08/30 07:53:36;;;;;;;4.43;3.40;;;19.70;99.90;;;;;;5110867;28;20386;-70
2022/08/30 07:56:02;;;;;;;5.10;3.60;;;19.60;99.90;;;;;;5092938;28;20051;-71
2022/08/30 07:58:28;;;;;;;7.28;3.53;;;19.60;99.90;;;;;;5092669;28;20043;-73
2022/08/30 08:00:58;;;;;;;10.50;3.70;;;19.70;99.90;;;;;;5092118;28;20087;-72
2022/08/30 08:03:25;;;;;;;9.95;3.28;;;19.90;99.90;;;;;;5110108;28;20055;-72
2022/08/30 08:05:52;;;;;;;9.50;4.67;;;19.70;99.90;;;;;;5103988;28;20114;-73
2022/08/30 08:08:18;;;;;;;8.25;3.58;;;19.80;99.90;;;;;;5092172;28;20092;-75
2022/08/30 08:10:44;;;;;;;3.78;2.92;;;20.00;99.90;;;;;;5111091;28;20092;-73
2022/08/30 08:13:10;;;;;;;2.92;2.42;;;19.90;99.90;;;;;;5092195;28;20499;-72
2022/08/30 08:15:36;;;;;;;2.97;2.67;;;19.90;99.90;;;;;;5091346;28;20058;-74
2022/08/30 08:18:02;;;;;;;3.88;2.88;;;20.20;99.90;;;;;;5110627;28;20075;-74
2022/08/30 08:20:28;;;;;;;7.40;3.15;;;20.20;99.90;;;;;;5092359;28;20071;-74
2022/08/30 08:22:54;;;;;;;5.68;2.70;;;20.40;99.90;;;;;;5101306;27;20099;-74
2022/08/30 08:25:20;;;;;;;2.78;2.58;;;20.50;99.90;;;;;;5097564;27;20043;-75
2022/08/30 08:27:49;;;;;;;2.92;2.20;;;20.60;99.90;;;;;;5107813;28;20133;-74
2022/08/30 08:30:16;;;;;;;4.35;2.85;;;20.60;99.90;;;;;;5091922;28;20540;-75
2022/08/30 08:32:42;;;;;;;2.22;2.03;;;20.80;99.90;;;;;;5093069;28;20044;-73
2022/08/30 08:35:10;;;;;;;3.92;2.15;;;20.70;99.90;;;;;;5091666;28;20044;-75
2022/08/30 08:37:36;;;;;;;5.40;2.75;;;20.90;99.90;;;;;;5095466;27;20864;-74
2022/08/30 08:40:04;;;;;;;13.85;3.20;;;21.00;99.90;;;;;;5120803;27;20040;-74
2022/08/30 08:42:30;;;;;;;6.15;3.08;;;20.90;99.90;;;;;;5126745;27;20100;-73
2022/08/30 08:45:02;;;;;;;2.90;2.00;;;20.90;99.90;;;;;;5118647;27;20052;-73
2022/08/30 08:47:46;;;;;;;3.58;2.40;;;21.10;97.60;;;;;;5092550;27;20122;-73
2022/08/30 08:50:18;;;;;;;4.05;2.58;;;21.10;93.80;;;;;;5102010;27;20114;-74
2022/08/30 08:55:56;;;;;;;10.05;2.08;;;21.30;92.30;;;;;;5095900;28;20090;-75
2022/08/30 08:58:26;;;;;;;7.13;2.53;;;21.30;95.80;;;;;;5097796;28;20103;-74
2022/08/30 09:00:53;;;;;;;3.90;2.92;;;21.30;95.00;;;;;;5109373;27;20796;-73
2022/08/30 09:03:21;;;;;;;5.88;2.92;;;21.30;93.60;;;;;;5117759;27;20050;-73
2022/08/30 09:05:48;;;;;;;6.38;3.13;;;21.40;90.10;;;;;;5105758;27;20065;-74
2022/08/30 09:08:17;;;;;;;3.45;2.97;;;21.30;91.40;;;;;;5098346;27;20043;-73
2022/08/30 09:11:05;;;;;;;7.50;2.60;;;21.30;92.10;;;;;;5112040;27;20047;-74
2022/08/30 09:13:31;;;;;;;12.88;2.13;;;21.10;90.10;;;;;;5106338;28;20056;-73
2022/08/30 09:15:58;;;;;;;4.22;2.75;;;21.00;93.40;;;;;;5117684;27;20047;-74
2022/08/30 09:18:46;;;;;;;3.20;2.22;;;21.00;94.20;;;;;;5106915;27;20438;-74
2022/08/30 09:21:19;;;;;;;3.90;2.08;;;21.30;91.80;;;;;;5087763;28;20035;-74
2022/08/30 09:23:57;;;;;;;11.63;2.45;;;21.50;90.70;;;;;;5125253;27;20047;-75
2022/08/30 09:26:29;;;;;;;7.88;3.00;;;21.70;88.70;;;;;;5105650;27;20037;-73
2022/08/30 09:28:55;;;;;;;2.38;1.95;;;21.40;85.40;;;;;;5092191;27;20524;-74
2022/08/30 09:31:29;;;;;;;2.83;2.30;;;21.40;89.10;;;;;;5079317;27;20134;-74
2022/08/30 09:34:07;;;;;;;4.22;3.00;;;21.40;89.00;;;;;;5110592;27;20385;-73
2022/08/30 09:36:45;;;;;;;3.13;2.22;;;21.80;88.40;;;;;;5107179;28;20089;-74
2022/08/30 09:39:33;;;;;;;3.78;2.28;;;22.10;84.80;;;;;;5105770;28;20141;-74
2022/08/30 09:42:31;;;;;;;2.97;2.30;;;22.00;81.30;;;;;;5105605;28;20070;-73
2022/08/30 09:45:09;;;;;;;5.15;2.88;;;21.60;82.00;;;;;;5050808;28;20560;-73
2022/08/30 09:47:38;;;;;;;2.55;2.30;;;21.80;86.40;;;;;;5107435;28;20097;-74
2022/08/30 09:50:22;;;;;;;3.38;2.60;;;21.80;83.60;;;;;;5089902;28;20085;-72
2022/08/30 09:53:11;;;;;;;5.32;2.60;;;22.10;81.60;;;;;;5109195;28;20069;-74
2022/08/30 09:55:50;;;;;;;6.10;3.47;;;21.80;83.20;;;;;;5108442;28;20066;-74
2022/08/30 09:58:50;;;;;;;2.97;2.67;;;21.60;83.20;;;;;;5108573;28;20039;-72
2022/08/30 10:01:41;;;;;;;9.77;2.45;;;21.60;81.50;;;;;;5103589;28;20389;-71
2022/08/30 10:04:27;;;;;;;5.82;2.95;;;21.70;81.50;;;;;;5089387;28;20062;-72
2022/08/30 10:07:26;;;;;;;5.47;2.42;;;21.90;83.20;;;;;;5097211;28;20137;-73
2022/08/30 10:10:04;;;;;;;12.07;3.53;;;22.10;75.00;;;;;;5088667;28;20123;-72
2022/08/30 10:12:56;;;;;;;4.10;2.55;;;22.00;76.90;;;;;;5089846;28;20050;-73
2022/08/30 10:15:32;;;;;;;3.80;2.90;;;22.20;76.50;;;;;;5078298;28;20454;-73
2022/08/30 10:18:04;;;;;;;3.20;2.72;;;22.20;73.50;;;;;;5099381;28;20924;-73
2022/08/30 10:20:49;;;;;;;2.63;2.33;;;21.80;73.80;;;;;;5107119;28;20043;-72
2022/08/30 10:23:20;;;;;;;2.80;1.92;;;21.80;75.40;;;;;;5073081;28;20048;-73
2022/08/30 10:26:15;;;;;;;2.17;1.95;;;22.10;72.20;;;;;;5107255;28;20126;-73
2022/08/30 10:28:48;;;;;;;7.20;3.00;;;22.10;68.30;;;;;;5050575;28;20489;-73
2022/08/30 10:31:40;;;;;;;3.28;2.67;;;22.20;72.00;;;;;;5106346;28;20063;-73
2022/08/30 10:34:30;;;;;;;4.13;2.63;;;22.50;70.80;;;;;;5107896;28;20110;-73
2022/08/30 10:37:18;;;;;;;11.98;3.03;;;22.60;70.60;;;;;;5088151;28;20051;-73
2022/08/30 10:39:59;;;;;;;3.15;2.03;;;22.60;70.10;;;;;;5098384;28;20126;-72
2022/08/30 10:42:30;;;;;;;4.60;3.05;;;22.50;68.50;;;;;;5108281;28;20201;-72
2022/08/30 10:45:13;;;;;;;3.22;2.17;;;22.70;68.30;;;;;;5107870;28;20147;-72
2022/08/30 10:47:55;;;;;;;3.28;2.85;;;22.70;67.30;;;;;;5089415;28;20055;-74
2022/08/30 10:50:33;;;;;;;3.85;2.53;;;22.80;64.70;;;;;;5109675;28;20048;-73
2022/08/30 10:53:14;;;;;;;3.38;2.65;;;22.70;66.00;;;;;;5106975;28;20138;-73
2022/08/30 10:56:11;;;;;;;4.28;2.45;;;22.80;64.50;;;;;;5106551;28;20051;-74
2022/08/30 10:58:39;;;;;;;3.55;2.53;;;22.80;65.00;;;;;;5085798;27;20047;-72
2022/08/30 11:01:48;;;;;;;3.72;3.03;;;22.90;67.40;;;;;;5109542;28;20060;-73
2022/08/30 11:04:32;;;;;;;7.30;3.88;;;23.10;64.20;;;;;;5091729;28;20087;-73
2022/08/30 11:07:30;;;;;;;3.22;2.22;;;23.00;65.20;;;;;;5096287;28;20052;-74
2022/08/30 11:10:14;;;;;;;4.78;2.65;;;22.70;63.60;;;;;;5109560;28;20047;-72
2022/08/30 11:13:03;;;;;;;2.65;2.33;;;22.80;67.40;;;;;;5111909;28;20048;-73
2022/08/30 11:15:34;;;;;;;4.25;2.50;;;22.90;64.70;;;;;;5087778;28;20086;-74
2022/08/30 11:18:09;;;;;;;5.75;2.72;;;23.00;67.00;;;;;;5076150;28;20130;-75
2022/08/30 11:21:15;;;;;;;9.80;2.92;;;22.90;66.20;;;;;;5092565;28;20047;-74
2022/08/30 11:23:40;;;;;;;3.65;2.65;;;22.60;67.80;;;;;;5126176;27;20092;-75
2022/08/30 11:26:12;;;;;;;4.68;2.95;;;22.80;68.80;;;;;;5111309;28;20047;-74
2022/08/30 11:28:46;;;;;;;5.50;3.05;;;23.00;68.30;;;;;;5114375;27;20836;-73
2022/08/30 11:31:21;;;;;;;3.38;2.95;;;23.30;68.50;;;;;;5107703;27;20887;-74
2022/08/30 11:33:47;;;;;;;5.63;3.53;;;23.40;67.10;;;;;;5092450;28;20703;-75
2022/08/30 11:36:37;;;;;;;3.70;2.30;;;23.30;64.10;;;;;;5092292;28;20059;-73
2022/08/30 11:39:47;;;;;;;3.35;2.65;;;23.40;64.80;;;;;;5092703;28;20043;-73
2022/08/30 11:42:27;;;;;;;4.60;3.05;;;23.60;66.30;;;;;;5012349;28;20964;-74
2022/08/30 11:44:52;;;;;;;5.93;2.40;;;23.60;67.80;;;;;;5007341;28;20060;-73
2022/08/30 11:47:46;;;;;;;5.30;2.90;;;23.70;67.60;;;;;;5075364;28;20059;-73
2022/08/30 11:50:18;;;;;;;5.00;2.22;;;23.80;67.10;;;;;;5107493;28;20055;-73
2022/08/30 11:53:23;;;;;;;7.30;2.70;;;23.70;65.00;;;;;;5108810;28;20059;-73
2022/08/30 11:56:12;;;;;;;9.73;8.93;;;23.20;65.90;;;;;;5089785;28;20055;-74
2022/08/30 11:59:00;;;;;;;3.53;2.55;;;23.40;65.90;;;;;;5110659;28;20075;-73
2022/08/30 12:01:26;;;;;;;3.83;2.53;;;23.60;68.10;;;;;;5088955;28;20039;-73
2022/08/30 12:04:09;;;;;;;3.30;2.83;;;23.80;66.90;;;;;;5109514;28;20055;-73
2022/08/30 12:06:47;;;;;;;2.85;2.35;;;23.50;67.90;;;;;;5089058;28;20044;-73
2022/08/30 12:09:20;;;;;;;;;;;23.30;66.10;;;;;;5089683;28;20051;-72
2022/08/30 12:11:58;;;;;;;11.90;2.30;;;23.50;67.20;;;;;;5082150;28;19923;-73
2022/08/30 12:15:00;;;;;;;2.50;2.30;;;23.40;65.30;;;;;;5110112;28;20169;-73
2022/08/30 12:20:16;;;;;;;;;;;23.30;66.30;;;;;;5104076;28;20048;-73
2022/08/30 12:22:41;;;;;;;3.83;2.05;;;23.10;61.90;;;;;;5113483;27;19919;-74
2022/08/30 12:25:30;;;;;;;7.10;2.40;;;23.40;64.40;;;;;;5108995;28;20051;-75
2022/08/30 12:28:28;;;;;;;4.90;2.60;;;23.60;65.40;;;;;;5087110;28;20043;-75
2022/08/30 12:30:53;;;;;;;2.47;2.28;;;23.70;64.60;;;;;;5049293;28;20059;-74
2022/08/30 12:33:31;;;;;;;3.83;2.50;;;23.60;65.90;;;;;;5109040;28;20050;-74
2022/08/30 12:35:58;;;;;;;;;;;23.40;64.90;;;;;;5089370;28;20127;-73
2022/08/30 12:38:28;;;;;;;3.55;2.50;;;23.40;65.60;;;;;;5090528;28;19924;-74
2022/08/30 12:41:00;;;;;;;2.28;1.83;;;23.50;65.70;;;;;;5109606;28;20078;-73
2022/08/30 12:43:35;;;;;;;2.92;2.22;;;23.90;64.60;;;;;;5110527;28;20040;-74
2022/08/30 12:46:06;;;;;;;11.10;3.55;;;23.50;61.90;;;;;;5109957;28;20468;-74
2022/08/30 12:48:35;;;;;;;6.22;2.40;;;23.50;63.40;;;;;;5091747;28;20047;-73
2022/08/30 12:51:02;;;;;;;3.10;2.13;;;23.50;63.00;;;;;;5109573;27;20130;-73
2022/08/30 12:53:45;;;;;;;3.08;2.33;;;23.40;63.70;;;;;;5091609;28;20503;-74
2022/08/30 12:56:13;;;;;;;4.00;3.03;;;23.20;63.30;;;;;;5091537;28;20077;-74
2022/08/30 12:58:42;;;;;;;6.22;2.55;;;23.00;64.10;;;;;;5109201;28;20059;-73
2022/08/30 13:01:28;;;;;;;3.88;2.05;;;22.90;63.70;;;;;;5108993;28;20060;-74
2022/08/30 13:04:12;;;;;;;4.30;2.60;;;23.30;63.80;;;;;;5091992;28;20079;-73
2022/08/30 13:06:53;;;;;;;5.25;2.55;;;23.30;64.20;;;;;;5109058;28;20081;-74